sensor_id;sensor_type;location;lat;lon;timestamp;P1;durP1;ratioP1;P2;durP2;ratioP2
2404;SDS011;1213;43.206;27.922;2023-05-20T00:00:08;7.03;;;4.23;;
2404;SDS011;1213;43.206;27.922;2023-05-20T00:02:33;4.03;;;3.63;;
2404;SDS011;1213;43.206;27.922;2023-05-20T00:04:59;6.17;;;4.30;;
2404;SDS011;1213;43.206;27.922;2023-05-20T00:07:24;8.67;;;4.40;;
2404;SDS011;1213;43.206;27.922;2023-05-20T00:09:50;4.93;;;4.43;;
2404;SDS011;1213;43.206;27.922;2023-05-20T00:12:15;5.00;;;4.40;;
2404;SDS011;1213;43.206;27.922;2023-05-20T00:14:41;5.90;;;3.50;;
2404;SDS011;1213;43.206;27.922;2023-05-20T00:17:06;5.03;;;4.33;;
2404;SDS011;1213;43.206;27.922;2023-05-20T00:19:31;5.83;;;4.10;;
2404;SDS011;1213;43.206;27.922;2023-05-20T00:21:56;6.73;;;4.87;;
2404;SDS011;1213;43.206;27.922;2023-05-20T00:24:23;6.87;;;4.63;;
2404;SDS011;1213;43.206;27.922;2023-05-20T00:26:48;5.80;;;4.53;;
2404;SDS011;1213;43.206;27.922;2023-05-20T00:29:13;6.03;;;4.53;;
2404;SDS011;1213;43.206;27.922;2023-05-20T00:31:39;7.27;;;4.70;;
2404;SDS011;1213;43.206;27.922;2023-05-20T00:34:04;7.43;;;4.77;;
2404;SDS011;1213;43.206;27.922;2023-05-20T00:36:29;6.87;;;5.10;;
2404;SDS011;1213;43.206;27.922;2023-05-20T00:38:55;6.10;;;4.90;;
2404;SDS011;1213;43.206;27.922;2023-05-20T00:41:20;7.33;;;5.17;;
2404;SDS011;1213;43.206;27.922;2023-05-20T00:43:45;4.03;;;3.63;;
2404;SDS011;1213;43.206;27.922;2023-05-20T00:46:11;4.30;;;3.90;;
2404;SDS011;1213;43.206;27.922;2023-05-20T00:48:40;7.20;;;4.63;;
2404;SDS011;1213;43.206;27.922;2023-05-20T00:51:06;3.97;;;3.40;;
2404;SDS011;1213;43.206;27.922;2023-05-20T00:53:32;5.23;;;4.60;;
2404;SDS011;1213;43.206;27.922;2023-05-20T00:55:57;4.70;;;4.30;;
2404;SDS011;1213;43.206;27.922;2023-05-20T00:58:23;7.23;;;4.67;;
2404;SDS011;1213;43.206;27.922;2023-05-20T01:00:48;9.43;;;4.43;;
2404;SDS011;1213;43.206;27.922;2023-05-20T01:03:14;4.80;;;4.30;;
2404;SDS011;1213;43.206;27.922;2023-05-20T01:05:39;4.53;;;4.10;;
2404;SDS011;1213;43.206;27.922;2023-05-20T01:08:05;6.70;;;4.30;;
2404;SDS011;1213;43.206;27.922;2023-05-20T01:10:30;7.83;;;5.10;;
2404;SDS011;1213;43.206;27.922;2023-05-20T01:12:57;6.10;;;4.87;;
2404;SDS011;1213;43.206;27.922;2023-05-20T01:15:23;7.03;;;4.60;;
2404;SDS011;1213;43.206;27.922;2023-05-20T01:17:51;11.30;;;4.60;;
2404;SDS011;1213;43.206;27.922;2023-05-20T01:20:18;5.40;;;4.80;;
2404;SDS011;1213;43.206;27.922;2023-05-20T01:22:48;5.07;;;4.17;;
2404;SDS011;1213;43.206;27.922;2023-05-20T01:25:14;7.57;;;4.90;;
2404;SDS011;1213;43.206;27.922;2023-05-20T01:27:39;7.83;;;5.03;;
2404;SDS011;1213;43.206;27.922;2023-05-20T01:30:05;5.23;;;4.47;;
2404;SDS011;1213;43.206;27.922;2023-05-20T01:32:31;5.97;;;4.93;;
2404;SDS011;1213;43.206;27.922;2023-05-20T01:34:58;4.60;;;4.03;;
2404;SDS011;1213;43.206;27.922;2023-05-20T01:37:23;5.77;;;4.57;;
2404;SDS011;1213;43.206;27.922;2023-05-20T01:39:49;6.93;;;4.00;;
2404;SDS011;1213;43.206;27.922;2023-05-20T01:42:15;7.77;;;4.20;;
2404;SDS011;1213;43.206;27.922;2023-05-20T01:44:41;7.93;;;4.40;;
2404;SDS011;1213;43.206;27.922;2023-05-20T01:47:07;6.60;;;4.93;;
2404;SDS011;1213;43.206;27.922;2023-05-20T01:49:32;6.00;;;4.53;;
2404;SDS011;1213;43.206;27.922;2023-05-20T01:51:57;10.90;;;4.30;;
2404;SDS011;1213;43.206;27.922;2023-05-20T01:54:23;4.73;;;4.20;;
2404;SDS011;1213;43.206;27.922;2023-05-20T01:56:48;5.20;;;4.00;;
2404;SDS011;1213;43.206;27.922;2023-05-20T01:59:14;6.60;;;4.17;;
2404;SDS011;1213;43.206;27.922;2023-05-20T02:01:39;7.17;;;4.17;;
2404;SDS011;1213;43.206;27.922;2023-05-20T02:04:04;6.43;;;4.57;;
2404;SDS011;1213;43.206;27.922;2023-05-20T02:06:29;5.47;;;4.50;;
2404;SDS011;1213;43.206;27.922;2023-05-20T02:08:55;6.90;;;4.63;;
2404;SDS011;1213;43.206;27.922;2023-05-20T02:11:20;5.47;;;4.30;;
2404;SDS011;1213;43.206;27.922;2023-05-20T02:13:46;4.50;;;3.93;;
2404;SDS011;1213;43.206;27.922;2023-05-20T02:16:11;4.30;;;3.90;;
2404;SDS011;1213;43.206;27.922;2023-05-20T02:18:37;5.07;;;4.30;;
2404;SDS011;1213;43.206;27.922;2023-05-20T02:21:02;6.47;;;4.87;;
2404;SDS011;1213;43.206;27.922;2023-05-20T02:23:28;9.23;;;5.43;;
2404;SDS011;1213;43.206;27.922;2023-05-20T02:25:54;5.53;;;4.30;;
2404;SDS011;1213;43.206;27.922;2023-05-20T02:28:19;7.77;;;4.50;;
2404;SDS011;1213;43.206;27.922;2023-05-20T02:30:44;4.50;;;3.70;;
2404;SDS011;1213;43.206;27.922;2023-05-20T02:33:11;6.00;;;4.30;;
2404;SDS011;1213;43.206;27.922;2023-05-20T02:35:36;4.17;;;3.70;;
2404;SDS011;1213;43.206;27.922;2023-05-20T02:38:01;4.50;;;3.93;;
2404;SDS011;1213;43.206;27.922;2023-05-20T02:40:26;4.70;;;4.10;;
2404;SDS011;1213;43.206;27.922;2023-05-20T02:42:52;5.10;;;4.10;;
2404;SDS011;1213;43.206;27.922;2023-05-20T02:45:17;7.20;;;4.40;;
2404;SDS011;1213;43.206;27.922;2023-05-20T02:47:42;4.20;;;3.63;;
2404;SDS011;1213;43.206;27.922;2023-05-20T02:50:07;7.53;;;3.43;;
2404;SDS011;1213;43.206;27.922;2023-05-20T02:52:33;8.53;;;4.37;;
2404;SDS011;1213;43.206;27.922;2023-05-20T02:54:59;6.70;;;4.47;;
2404;SDS011;1213;43.206;27.922;2023-05-20T02:57:24;6.13;;;3.70;;
2404;SDS011;1213;43.206;27.922;2023-05-20T02:59:51;6.20;;;4.40;;
2404;SDS011;1213;43.206;27.922;2023-05-20T03:02:16;5.30;;;4.77;;
2404;SDS011;1213;43.206;27.922;2023-05-20T03:04:42;6.83;;;4.33;;
2404;SDS011;1213;43.206;27.922;2023-05-20T03:07:07;5.80;;;4.93;;
2404;SDS011;1213;43.206;27.922;2023-05-20T03:09:33;4.93;;;4.13;;
2404;SDS011;1213;43.206;27.922;2023-05-20T03:11:58;6.70;;;4.97;;
2404;SDS011;1213;43.206;27.922;2023-05-20T03:14:23;4.40;;;3.93;;
2404;SDS011;1213;43.206;27.922;2023-05-20T03:16:48;5.97;;;4.30;;
2404;SDS011;1213;43.206;27.922;2023-05-20T03:19:14;8.40;;;4.70;;
2404;SDS011;1213;43.206;27.922;2023-05-20T03:21:40;8.80;;;4.27;;
2404;SDS011;1213;43.206;27.922;2023-05-20T03:24:05;5.13;;;4.63;;
2404;SDS011;1213;43.206;27.922;2023-05-20T03:26:31;4.47;;;4.07;;
2404;SDS011;1213;43.206;27.922;2023-05-20T03:28:57;5.83;;;5.27;;
2404;SDS011;1213;43.206;27.922;2023-05-20T03:31:23;5.83;;;4.50;;
2404;SDS011;1213;43.206;27.922;2023-05-20T03:33:48;13.67;;;4.30;;
2404;SDS011;1213;43.206;27.922;2023-05-20T03:36:13;4.87;;;4.30;;
2404;SDS011;1213;43.206;27.922;2023-05-20T03:38:38;6.80;;;4.63;;
2404;SDS011;1213;43.206;27.922;2023-05-20T03:41:04;5.27;;;4.43;;
2404;SDS011;1213;43.206;27.922;2023-05-20T03:43:29;4.80;;;4.30;;
2404;SDS011;1213;43.206;27.922;2023-05-20T03:45:55;4.07;;;3.77;;
2404;SDS011;1213;43.206;27.922;2023-05-20T03:48:20;4.50;;;4.10;;
2404;SDS011;1213;43.206;27.922;2023-05-20T03:50:45;5.00;;;3.80;;
2404;SDS011;1213;43.206;27.922;2023-05-20T03:53:11;8.10;;;4.37;;
2404;SDS011;1213;43.206;27.922;2023-05-20T03:55:36;4.57;;;4.17;;
2404;SDS011;1213;43.206;27.922;2023-05-20T03:58:02;4.33;;;3.77;;
2404;SDS011;1213;43.206;27.922;2023-05-20T04:00:27;3.93;;;3.53;;
2404;SDS011;1213;43.206;27.922;2023-05-20T04:02:55;7.07;;;4.60;;
2404;SDS011;1213;43.206;27.922;2023-05-20T04:05:21;5.77;;;4.00;;
2404;SDS011;1213;43.206;27.922;2023-05-20T04:07:47;4.50;;;3.60;;
2404;SDS011;1213;43.206;27.922;2023-05-20T04:10:12;4.40;;;4.00;;
2404;SDS011;1213;43.206;27.922;2023-05-20T04:12:38;4.90;;;3.90;;
2404;SDS011;1213;43.206;27.922;2023-05-20T04:15:03;4.63;;;3.90;;
2404;SDS011;1213;43.206;27.922;2023-05-20T04:17:29;5.93;;;4.20;;
2404;SDS011;1213;43.206;27.922;2023-05-20T04:19:55;7.30;;;4.33;;
2404;SDS011;1213;43.206;27.922;2023-05-20T04:22:21;6.00;;;5.20;;
2404;SDS011;1213;43.206;27.922;2023-05-20T04:24:46;6.00;;;4.47;;
2404;SDS011;1213;43.206;27.922;2023-05-20T04:27:11;6.17;;;4.27;;
2404;SDS011;1213;43.206;27.922;2023-05-20T04:29:37;5.30;;;4.80;;
2404;SDS011;1213;43.206;27.922;2023-05-20T04:32:05;6.37;;;4.40;;
2404;SDS011;1213;43.206;27.922;2023-05-20T04:34:31;5.63;;;4.40;;
2404;SDS011;1213;43.206;27.922;2023-05-20T04:36:59;5.30;;;4.80;;
2404;SDS011;1213;43.206;27.922;2023-05-20T04:39:25;6.30;;;4.70;;
2404;SDS011;1213;43.206;27.922;2023-05-20T04:41:50;6.60;;;3.80;;
2404;SDS011;1213;43.206;27.922;2023-05-20T04:44:18;6.13;;;3.37;;
2404;SDS011;1213;43.206;27.922;2023-05-20T04:46:44;4.77;;;4.23;;
2404;SDS011;1213;43.206;27.922;2023-05-20T04:49:10;4.70;;;4.10;;
2404;SDS011;1213;43.206;27.922;2023-05-20T04:51:35;11.00;;;4.87;;
2404;SDS011;1213;43.206;27.922;2023-05-20T04:54:01;5.73;;;5.00;;
2404;SDS011;1213;43.206;27.922;2023-05-20T04:56:26;4.93;;;4.40;;
2404;SDS011;1213;43.206;27.922;2023-05-20T04:58:52;6.23;;;4.73;;
2404;SDS011;1213;43.206;27.922;2023-05-20T05:01:17;5.53;;;4.83;;
2404;SDS011;1213;43.206;27.922;2023-05-20T05:03:42;10.80;;;5.83;;
2404;SDS011;1213;43.206;27.922;2023-05-20T05:06:07;5.37;;;4.87;;
2404;SDS011;1213;43.206;27.922;2023-05-20T05:08:33;5.23;;;4.73;;
2404;SDS011;1213;43.206;27.922;2023-05-20T05:10:58;9.60;;;5.50;;
2404;SDS011;1213;43.206;27.922;2023-05-20T05:13:23;9.30;;;6.13;;
2404;SDS011;1213;43.206;27.922;2023-05-20T05:15:56;5.10;;;4.53;;
2404;SDS011;1213;43.206;27.922;2023-05-20T05:18:21;6.47;;;5.13;;
2404;SDS011;1213;43.206;27.922;2023-05-20T05:20:47;7.73;;;5.00;;
2404;SDS011;1213;43.206;27.922;2023-05-20T05:23:12;9.10;;;5.03;;
2404;SDS011;1213;43.206;27.922;2023-05-20T05:25:38;5.13;;;4.73;;
2404;SDS011;1213;43.206;27.922;2023-05-20T05:28:03;5.53;;;4.30;;
2404;SDS011;1213;43.206;27.922;2023-05-20T05:30:28;6.33;;;4.70;;
2404;SDS011;1213;43.206;27.922;2023-05-20T05:32:53;8.13;;;4.80;;
2404;SDS011;1213;43.206;27.922;2023-05-20T05:35:19;7.83;;;5.80;;
2404;SDS011;1213;43.206;27.922;2023-05-20T05:37:44;7.43;;;5.17;;
2404;SDS011;1213;43.206;27.922;2023-05-20T05:40:09;6.13;;;4.30;;
2404;SDS011;1213;43.206;27.922;2023-05-20T05:42:35;9.63;;;5.83;;
2404;SDS011;1213;43.206;27.922;2023-05-20T05:45:00;7.83;;;4.60;;
2404;SDS011;1213;43.206;27.922;2023-05-20T05:47:26;5.10;;;4.60;;
2404;SDS011;1213;43.206;27.922;2023-05-20T05:49:56;7.53;;;4.40;;
2404;SDS011;1213;43.206;27.922;2023-05-20T05:52:21;10.90;;;5.30;;
2404;SDS011;1213;43.206;27.922;2023-05-20T05:54:47;5.37;;;4.80;;
2404;SDS011;1213;43.206;27.922;2023-05-20T05:57:12;4.30;;;3.90;;
2404;SDS011;1213;43.206;27.922;2023-05-20T05:59:37;6.40;;;4.67;;
2404;SDS011;1213;43.206;27.922;2023-05-20T06:02:02;5.47;;;4.40;;
2404;SDS011;1213;43.206;27.922;2023-05-20T06:04:28;7.13;;;4.53;;
2404;SDS011;1213;43.206;27.922;2023-05-20T06:06:53;7.47;;;5.00;;
2404;SDS011;1213;43.206;27.922;2023-05-20T06:09:18;5.93;;;4.67;;
2404;SDS011;1213;43.206;27.922;2023-05-20T06:11:44;7.47;;;4.73;;
2404;SDS011;1213;43.206;27.922;2023-05-20T06:14:09;7.03;;;5.13;;
2404;SDS011;1213;43.206;27.922;2023-05-20T06:16:34;5.07;;;4.07;;
2404;SDS011;1213;43.206;27.922;2023-05-20T06:19:00;5.77;;;3.93;;
2404;SDS011;1213;43.206;27.922;2023-05-20T06:21:25;4.73;;;3.97;;
2404;SDS011;1213;43.206;27.922;2023-05-20T06:23:50;5.57;;;4.40;;
2404;SDS011;1213;43.206;27.922;2023-05-20T06:26:16;8.33;;;4.80;;
2404;SDS011;1213;43.206;27.922;2023-05-20T06:28:41;4.43;;;4.03;;
2404;SDS011;1213;43.206;27.922;2023-05-20T06:31:06;5.10;;;3.97;;
2404;SDS011;1213;43.206;27.922;2023-05-20T06:33:31;5.10;;;4.47;;
2404;SDS011;1213;43.206;27.922;2023-05-20T06:35:57;5.40;;;4.40;;
2404;SDS011;1213;43.206;27.922;2023-05-20T06:38:22;6.27;;;4.37;;
2404;SDS011;1213;43.206;27.922;2023-05-20T06:40:47;4.53;;;3.90;;
2404;SDS011;1213;43.206;27.922;2023-05-20T06:43:13;4.80;;;4.03;;
2404;SDS011;1213;43.206;27.922;2023-05-20T06:45:39;4.20;;;3.80;;
2404;SDS011;1213;43.206;27.922;2023-05-20T06:48:04;4.63;;;4.10;;
2404;SDS011;1213;43.206;27.922;2023-05-20T06:50:30;4.30;;;3.20;;
2404;SDS011;1213;43.206;27.922;2023-05-20T06:52:55;5.20;;;3.47;;
2404;SDS011;1213;43.206;27.922;2023-05-20T06:55:20;4.50;;;3.50;;
2404;SDS011;1213;43.206;27.922;2023-05-20T06:57:45;4.40;;;3.10;;
2404;SDS011;1213;43.206;27.922;2023-05-20T07:00:11;4.43;;;3.80;;
2404;SDS011;1213;43.206;27.922;2023-05-20T07:02:37;4.23;;;3.13;;
2404;SDS011;1213;43.206;27.922;2023-05-20T07:05:03;4.43;;;3.60;;
2404;SDS011;1213;43.206;27.922;2023-05-20T07:07:28;4.27;;;3.77;;
2404;SDS011;1213;43.206;27.922;2023-05-20T07:09:53;5.53;;;4.30;;
2404;SDS011;1213;43.206;27.922;2023-05-20T07:12:19;5.70;;;4.27;;
2404;SDS011;1213;43.206;27.922;2023-05-20T07:14:44;5.60;;;3.73;;
2404;SDS011;1213;43.206;27.922;2023-05-20T07:17:09;4.30;;;3.90;;
2404;SDS011;1213;43.206;27.922;2023-05-20T07:19:35;4.57;;;4.07;;
2404;SDS011;1213;43.206;27.922;2023-05-20T07:22:00;6.57;;;4.23;;
2404;SDS011;1213;43.206;27.922;2023-05-20T07:24:25;5.93;;;4.10;;
2404;SDS011;1213;43.206;27.922;2023-05-20T07:26:51;4.63;;;3.93;;
2404;SDS011;1213;43.206;27.922;2023-05-20T07:29:16;6.00;;;3.87;;
2404;SDS011;1213;43.206;27.922;2023-05-20T07:31:41;6.43;;;5.30;;
2404;SDS011;1213;43.206;27.922;2023-05-20T07:34:06;7.77;;;4.90;;
2404;SDS011;1213;43.206;27.922;2023-05-20T07:36:32;6.40;;;4.37;;
2404;SDS011;1213;43.206;27.922;2023-05-20T07:38:57;6.07;;;4.00;;
2404;SDS011;1213;43.206;27.922;2023-05-20T07:41:22;4.33;;;3.93;;
2404;SDS011;1213;43.206;27.922;2023-05-20T07:43:48;10.73;;;4.90;;
2404;SDS011;1213;43.206;27.922;2023-05-20T07:46:13;3.90;;;3.60;;
2404;SDS011;1213;43.206;27.922;2023-05-20T07:48:40;6.33;;;4.73;;
2404;SDS011;1213;43.206;27.922;2023-05-20T07:51:05;9.40;;;4.10;;
2404;SDS011;1213;43.206;27.922;2023-05-20T07:53:30;6.30;;;4.60;;
2404;SDS011;1213;43.206;27.922;2023-05-20T07:55:56;7.23;;;4.67;;
2404;SDS011;1213;43.206;27.922;2023-05-20T07:58:21;8.43;;;4.50;;
2404;SDS011;1213;43.206;27.922;2023-05-20T08:00:46;5.37;;;4.87;;
2404;SDS011;1213;43.206;27.922;2023-05-20T08:03:12;4.83;;;4.33;;
2404;SDS011;1213;43.206;27.922;2023-05-20T08:05:39;6.17;;;4.27;;
2404;SDS011;1213;43.206;27.922;2023-05-20T08:08:04;5.47;;;4.97;;
2404;SDS011;1213;43.206;27.922;2023-05-20T08:10:30;6.50;;;5.57;;
2404;SDS011;1213;43.206;27.922;2023-05-20T08:12:55;4.90;;;4.40;;
2404;SDS011;1213;43.206;27.922;2023-05-20T08:15:20;5.20;;;4.67;;
2404;SDS011;1213;43.206;27.922;2023-05-20T08:17:46;4.87;;;4.27;;
2404;SDS011;1213;43.206;27.922;2023-05-20T08:20:11;10.50;;;5.90;;
2404;SDS011;1213;43.206;27.922;2023-05-20T08:22:37;5.90;;;4.67;;
2404;SDS011;1213;43.206;27.922;2023-05-20T08:25:02;7.30;;;5.60;;
2404;SDS011;1213;43.206;27.922;2023-05-20T08:27:28;7.43;;;5.50;;
2404;SDS011;1213;43.206;27.922;2023-05-20T08:29:53;6.80;;;5.60;;
2404;SDS011;1213;43.206;27.922;2023-05-20T08:32:18;8.53;;;6.10;;
2404;SDS011;1213;43.206;27.922;2023-05-20T08:34:43;9.13;;;5.60;;
2404;SDS011;1213;43.206;27.922;2023-05-20T08:37:09;7.90;;;5.77;;
2404;SDS011;1213;43.206;27.922;2023-05-20T08:39:34;12.83;;;6.80;;
2404;SDS011;1213;43.206;27.922;2023-05-20T08:41:59;9.70;;;6.53;;
2404;SDS011;1213;43.206;27.922;2023-05-20T08:44:25;8.83;;;5.60;;
2404;SDS011;1213;43.206;27.922;2023-05-20T08:46:52;8.53;;;6.37;;
2404;SDS011;1213;43.206;27.922;2023-05-20T08:49:18;10.07;;;5.90;;
2404;SDS011;1213;43.206;27.922;2023-05-20T08:51:44;9.70;;;5.93;;
2404;SDS011;1213;43.206;27.922;2023-05-20T08:54:11;12.53;;;5.77;;
2404;SDS011;1213;43.206;27.922;2023-05-20T08:56:37;8.10;;;6.60;;
2404;SDS011;1213;43.206;27.922;2023-05-20T08:59:03;6.90;;;5.50;;
2404;SDS011;1213;43.206;27.922;2023-05-20T09:01:29;7.37;;;6.57;;
2404;SDS011;1213;43.206;27.922;2023-05-20T09:03:54;8.43;;;6.60;;
2404;SDS011;1213;43.206;27.922;2023-05-20T09:06:20;7.17;;;6.00;;
2404;SDS011;1213;43.206;27.922;2023-05-20T09:08:47;10.87;;;7.17;;
2404;SDS011;1213;43.206;27.922;2023-05-20T09:11:12;10.40;;;6.53;;
2404;SDS011;1213;43.206;27.922;2023-05-20T09:13:38;7.27;;;6.23;;
2404;SDS011;1213;43.206;27.922;2023-05-20T09:16:03;8.43;;;6.50;;
2404;SDS011;1213;43.206;27.922;2023-05-20T09:18:29;8.60;;;6.70;;
2404;SDS011;1213;43.206;27.922;2023-05-20T09:20:54;9.17;;;6.87;;
2404;SDS011;1213;43.206;27.922;2023-05-20T09:23:19;7.63;;;6.00;;
2404;SDS011;1213;43.206;27.922;2023-05-20T09:25:48;6.57;;;5.80;;
2404;SDS011;1213;43.206;27.922;2023-05-20T09:28:13;8.77;;;7.20;;
2404;SDS011;1213;43.206;27.922;2023-05-20T09:30:39;10.43;;;7.67;;
2404;SDS011;1213;43.206;27.922;2023-05-20T09:33:04;12.93;;;7.60;;
2404;SDS011;1213;43.206;27.922;2023-05-20T09:35:29;11.07;;;7.70;;
2404;SDS011;1213;43.206;27.922;2023-05-20T09:37:55;9.20;;;7.20;;
2404;SDS011;1213;43.206;27.922;2023-05-20T09:40:25;9.13;;;6.77;;
2404;SDS011;1213;43.206;27.922;2023-05-20T09:42:52;10.40;;;7.23;;
2404;SDS011;1213;43.206;27.922;2023-05-20T09:45:18;13.50;;;7.03;;
2404;SDS011;1213;43.206;27.922;2023-05-20T09:47:44;8.20;;;6.53;;
2404;SDS011;1213;43.206;27.922;2023-05-20T09:50:09;7.57;;;6.70;;
2404;SDS011;1213;43.206;27.922;2023-05-20T09:52:38;11.30;;;6.90;;
2404;SDS011;1213;43.206;27.922;2023-05-20T09:55:07;7.00;;;6.30;;
2404;SDS011;1213;43.206;27.922;2023-05-20T09:57:34;8.80;;;6.60;;
2404;SDS011;1213;43.206;27.922;2023-05-20T10:00:00;8.77;;;6.83;;
2404;SDS011;1213;43.206;27.922;2023-05-20T10:02:26;8.70;;;7.57;;
2404;SDS011;1213;43.206;27.922;2023-05-20T10:04:51;9.70;;;7.13;;
2404;SDS011;1213;43.206;27.922;2023-05-20T10:12:35;10.07;;;7.00;;
2404;SDS011;1213;43.206;27.922;2023-05-20T10:15:17;7.40;;;5.63;;
2404;SDS011;1213;43.206;27.922;2023-05-20T10:20:15;12.63;;;7.37;;
2404;SDS011;1213;43.206;27.922;2023-05-20T10:22:41;12.13;;;7.63;;
2404;SDS011;1213;43.206;27.922;2023-05-20T10:25:10;11.43;;;7.00;;
2404;SDS011;1213;43.206;27.922;2023-05-20T10:27:46;8.07;;;6.13;;
2404;SDS011;1213;43.206;27.922;2023-05-20T10:30:19;9.00;;;6.47;;
2404;SDS011;1213;43.206;27.922;2023-05-20T10:32:51;18.53;;;9.37;;
2404;SDS011;1213;43.206;27.922;2023-05-20T10:35:20;11.20;;;7.40;;
2404;SDS011;1213;43.206;27.922;2023-05-20T10:37:45;7.53;;;6.43;;
2404;SDS011;1213;43.206;27.922;2023-05-20T10:40:12;7.90;;;6.33;;
2404;SDS011;1213;43.206;27.922;2023-05-20T10:42:38;10.30;;;6.70;;
2404;SDS011;1213;43.206;27.922;2023-05-20T10:45:04;7.60;;;5.57;;
2404;SDS011;1213;43.206;27.922;2023-05-20T10:47:30;5.80;;;5.10;;
2404;SDS011;1213;43.206;27.922;2023-05-20T10:49:56;6.07;;;4.30;;
2404;SDS011;1213;43.206;27.922;2023-05-20T10:52:22;7.87;;;4.33;;
2404;SDS011;1213;43.206;27.922;2023-05-20T10:54:57;7.40;;;3.80;;
2404;SDS011;1213;43.206;27.922;2023-05-20T10:57:22;4.93;;;3.83;;
2404;SDS011;1213;43.206;27.922;2023-05-20T10:59:48;5.37;;;4.87;;
2404;SDS011;1213;43.206;27.922;2023-05-20T11:02:14;7.10;;;4.80;;
2404;SDS011;1213;43.206;27.922;2023-05-20T11:04:43;5.73;;;4.27;;
2404;SDS011;1213;43.206;27.922;2023-05-20T11:07:08;8.50;;;4.77;;
2404;SDS011;1213;43.206;27.922;2023-05-20T11:09:34;5.57;;;4.00;;
2404;SDS011;1213;43.206;27.922;2023-05-20T11:11:59;5.00;;;4.40;;
2404;SDS011;1213;43.206;27.922;2023-05-20T11:14:26;7.07;;;4.77;;
2404;SDS011;1213;43.206;27.922;2023-05-20T11:16:52;5.70;;;4.10;;
2404;SDS011;1213;43.206;27.922;2023-05-20T11:19:18;7.50;;;4.57;;
2404;SDS011;1213;43.206;27.922;2023-05-20T11:21:43;4.60;;;3.93;;
2404;SDS011;1213;43.206;27.922;2023-05-20T11:24:09;5.17;;;3.47;;
2404;SDS011;1213;43.206;27.922;2023-05-20T11:26:35;8.13;;;5.23;;
2404;SDS011;1213;43.206;27.922;2023-05-20T11:29:00;7.13;;;4.23;;
2404;SDS011;1213;43.206;27.922;2023-05-20T11:31:26;5.07;;;4.07;;
2404;SDS011;1213;43.206;27.922;2023-05-20T11:33:52;4.73;;;4.33;;
2404;SDS011;1213;43.206;27.922;2023-05-20T11:36:17;6.20;;;3.80;;
2404;SDS011;1213;43.206;27.922;2023-05-20T11:38:44;5.90;;;5.03;;
2404;SDS011;1213;43.206;27.922;2023-05-20T11:41:09;8.63;;;4.23;;
2404;SDS011;1213;43.206;27.922;2023-05-20T11:43:35;5.13;;;3.50;;
2404;SDS011;1213;43.206;27.922;2023-05-20T11:46:00;4.90;;;4.40;;
2404;SDS011;1213;43.206;27.922;2023-05-20T11:48:25;5.40;;;4.50;;
2404;SDS011;1213;43.206;27.922;2023-05-20T11:50:52;6.63;;;4.63;;
2404;SDS011;1213;43.206;27.922;2023-05-20T11:53:18;8.13;;;4.40;;
2404;SDS011;1213;43.206;27.922;2023-05-20T11:58:10;4.90;;;4.50;;
2404;SDS011;1213;43.206;27.922;2023-05-20T12:00:35;5.73;;;4.90;;
2404;SDS011;1213;43.206;27.922;2023-05-20T12:03:01;6.10;;;4.60;;
2404;SDS011;1213;43.206;27.922;2023-05-20T12:05:26;12.63;;;5.30;;
2404;SDS011;1213;43.206;27.922;2023-05-20T12:07:52;5.10;;;4.50;;
2404;SDS011;1213;43.206;27.922;2023-05-20T12:10:18;4.77;;;4.30;;
2404;SDS011;1213;43.206;27.922;2023-05-20T12:12:43;4.80;;;4.40;;
2404;SDS011;1213;43.206;27.922;2023-05-20T12:15:09;6.30;;;5.07;;
2404;SDS011;1213;43.206;27.922;2023-05-20T12:17:47;8.00;;;4.23;;
2404;SDS011;1213;43.206;27.922;2023-05-20T12:20:13;9.33;;;4.73;;
2404;SDS011;1213;43.206;27.922;2023-05-20T12:22:40;4.30;;;3.90;;
2404;SDS011;1213;43.206;27.922;2023-05-20T12:25:05;7.13;;;4.73;;
2404;SDS011;1213;43.206;27.922;2023-05-20T12:27:30;5.90;;;4.57;;
2404;SDS011;1213;43.206;27.922;2023-05-20T12:29:57;7.67;;;4.70;;
2404;SDS011;1213;43.206;27.922;2023-05-20T12:32:22;5.43;;;4.93;;
2404;SDS011;1213;43.206;27.922;2023-05-20T12:34:48;8.13;;;4.67;;
2404;SDS011;1213;43.206;27.922;2023-05-20T12:37:14;6.83;;;4.60;;
2404;SDS011;1213;43.206;27.922;2023-05-20T12:39:39;5.33;;;4.80;;
2404;SDS011;1213;43.206;27.922;2023-05-20T12:42:06;6.17;;;4.40;;
2404;SDS011;1213;43.206;27.922;2023-05-20T12:44:31;5.77;;;4.43;;
2404;SDS011;1213;43.206;27.922;2023-05-20T12:46:56;4.43;;;4.03;;
2404;SDS011;1213;43.206;27.922;2023-05-20T12:49:21;5.43;;;4.03;;
2404;SDS011;1213;43.206;27.922;2023-05-20T12:51:47;7.47;;;4.73;;
2404;SDS011;1213;43.206;27.922;2023-05-20T12:54:12;7.00;;;4.90;;
2404;SDS011;1213;43.206;27.922;2023-05-20T12:56:37;8.63;;;4.20;;
2404;SDS011;1213;43.206;27.922;2023-05-20T12:59:03;7.37;;;4.47;;
2404;SDS011;1213;43.206;27.922;2023-05-20T13:01:28;6.97;;;4.97;;
2404;SDS011;1213;43.206;27.922;2023-05-20T13:03:53;6.33;;;4.53;;
2404;SDS011;1213;43.206;27.922;2023-05-20T13:06:19;6.83;;;5.23;;
2404;SDS011;1213;43.206;27.922;2023-05-20T13:08:44;8.97;;;4.83;;
2404;SDS011;1213;43.206;27.922;2023-05-20T13:11:10;6.47;;;3.73;;
2404;SDS011;1213;43.206;27.922;2023-05-20T13:13:35;4.83;;;3.87;;
2404;SDS011;1213;43.206;27.922;2023-05-20T13:16:01;6.53;;;4.50;;
2404;SDS011;1213;43.206;27.922;2023-05-20T13:18:27;5.63;;;4.00;;
2404;SDS011;1213;43.206;27.922;2023-05-20T13:20:52;10.30;;;4.83;;
2404;SDS011;1213;43.206;27.922;2023-05-20T13:23:18;5.83;;;5.23;;
2404;SDS011;1213;43.206;27.922;2023-05-20T13:25:43;7.47;;;5.40;;
2404;SDS011;1213;43.206;27.922;2023-05-20T13:28:09;5.23;;;4.10;;
2404;SDS011;1213;43.206;27.922;2023-05-20T13:30:34;8.33;;;4.27;;
2404;SDS011;1213;43.206;27.922;2023-05-20T13:33:00;8.70;;;5.30;;
2404;SDS011;1213;43.206;27.922;2023-05-20T13:35:25;9.87;;;4.47;;
2404;SDS011;1213;43.206;27.922;2023-05-20T13:37:50;6.87;;;4.53;;
2404;SDS011;1213;43.206;27.922;2023-05-20T13:40:15;8.17;;;6.33;;
2404;SDS011;1213;43.206;27.922;2023-05-20T13:42:41;6.57;;;4.73;;
2404;SDS011;1213;43.206;27.922;2023-05-20T13:45:08;7.67;;;4.47;;
2404;SDS011;1213;43.206;27.922;2023-05-20T13:47:33;6.87;;;5.23;;
2404;SDS011;1213;43.206;27.922;2023-05-20T13:49:58;7.17;;;4.10;;
2404;SDS011;1213;43.206;27.922;2023-05-20T13:52:24;15.43;;;5.50;;
2404;SDS011;1213;43.206;27.922;2023-05-20T13:54:49;10.80;;;5.90;;
2404;SDS011;1213;43.206;27.922;2023-05-20T13:57:14;8.47;;;4.33;;
2404;SDS011;1213;43.206;27.922;2023-05-20T13:59:40;9.50;;;4.20;;
2404;SDS011;1213;43.206;27.922;2023-05-20T14:02:05;9.20;;;4.77;;
2404;SDS011;1213;43.206;27.922;2023-05-20T14:04:31;4.80;;;4.40;;
2404;SDS011;1213;43.206;27.922;2023-05-20T14:07:00;6.17;;;4.50;;
2404;SDS011;1213;43.206;27.922;2023-05-20T14:09:28;7.13;;;5.40;;
2404;SDS011;1213;43.206;27.922;2023-05-20T14:11:54;6.20;;;4.97;;
2404;SDS011;1213;43.206;27.922;2023-05-20T14:14:19;6.20;;;4.93;;
2404;SDS011;1213;43.206;27.922;2023-05-20T14:16:45;6.70;;;4.50;;
2404;SDS011;1213;43.206;27.922;2023-05-20T14:19:11;5.80;;;5.20;;
2404;SDS011;1213;43.206;27.922;2023-05-20T14:21:36;8.87;;;4.70;;
2404;SDS011;1213;43.206;27.922;2023-05-20T14:24:02;9.30;;;4.30;;
2404;SDS011;1213;43.206;27.922;2023-05-20T14:26:27;4.80;;;4.30;;
2404;SDS011;1213;43.206;27.922;2023-05-20T14:28:52;6.67;;;4.27;;
2404;SDS011;1213;43.206;27.922;2023-05-20T14:31:18;6.50;;;4.70;;
2404;SDS011;1213;43.206;27.922;2023-05-20T14:33:43;6.33;;;4.93;;
2404;SDS011;1213;43.206;27.922;2023-05-20T14:36:08;6.70;;;4.73;;
2404;SDS011;1213;43.206;27.922;2023-05-20T14:38:34;8.87;;;5.17;;
2404;SDS011;1213;43.206;27.922;2023-05-20T14:40:59;7.17;;;5.23;;
2404;SDS011;1213;43.206;27.922;2023-05-20T14:43:25;9.47;;;5.70;;
2404;SDS011;1213;43.206;27.922;2023-05-20T14:45:50;6.40;;;5.00;;
2404;SDS011;1213;43.206;27.922;2023-05-20T14:48:16;5.07;;;4.57;;
2404;SDS011;1213;43.206;27.922;2023-05-20T14:50:41;7.17;;;4.90;;
2404;SDS011;1213;43.206;27.922;2023-05-20T14:53:06;13.10;;;6.10;;
2404;SDS011;1213;43.206;27.922;2023-05-20T14:55:31;6.07;;;4.00;;
2404;SDS011;1213;43.206;27.922;2023-05-20T14:57:57;9.30;;;5.80;;
2404;SDS011;1213;43.206;27.922;2023-05-20T15:00:22;6.47;;;4.77;;